Time;durP1;ratioP1;P1;durP2;ratioP2;P2;SDS_P1;SDS_P2;PMS_P1;PMS_P2;Temp;Humidity;BMP_temperature;BMP_pressure;BME280_temperature;BME280_humidity;BME280_pressure;Samples;Min_cycle;Max_cycle;Signal;HPM_P1;HPM_P2
2023/05/14 00:00:16;;;;;;;4.88;4.15;;;;;;;19.28;63.11;101907.47;6124283;23;20409;-51
2023/05/14 00:02:42;;;;;;;4.78;4.38;;;;;;;19.28;62.89;101907.47;6124025;23;20025;-51
2023/05/14 00:05:08;;;;;;;4.68;4.28;;;;;;;19.27;63.06;101908.47;6124138;23;20010;-51
2023/05/14 00:07:34;;;;;;;5.20;4.32;;;;;;;19.26;62.91;101902.19;6125078;23;20081;-51
2023/05/14 00:09:59;;;;;;;6.32;4.03;;;;;;;19.28;63.25;101896.69;6124001;23;20478;-51
2023/05/14 00:12:25;;;;;;;4.88;4.30;;;;;;;19.26;63.16;101902.19;6097882;23;20006;-51
2023/05/14 00:14:52;;;;;;;5.18;4.57;;;;;;;19.27;63.06;101897.69;6124076;23;20006;-51
2023/05/14 00:17:17;;;;;;;6.18;4.43;;;;;;;19.27;63.26;101892.28;6123791;23;20447;-52
2023/05/14 00:19:43;;;;;;;4.88;4.05;;;;;;;19.26;63.19;101886.00;6123977;23;20041;-52
2023/05/14 00:22:08;;;;;;;4.85;4.32;;;;;;;19.28;62.89;101893.97;6123864;23;20013;-52
2023/05/14 00:24:34;;;;;;;4.38;3.97;;;;;;;19.27;63.19;101897.69;6124613;23;20006;-51
2023/05/14 00:27:00;;;;;;;5.57;4.88;;;;;;;19.26;63.39;101895.94;6123943;23;20484;-51
2023/05/14 00:29:25;;;;;;;4.65;4.10;;;;;;;19.26;63.02;101890.56;6124002;23;20029;-52
2023/05/14 00:31:51;;;;;;;5.10;4.45;;;;;;;19.26;63.21;101890.56;6123298;23;20314;-51
2023/05/14 00:34:16;;;;;;;4.63;3.80;;;;;;;19.25;62.96;101883.44;6123893;23;20038;-52
2023/05/14 00:36:42;;;;;;;5.57;4.30;;;;;;;19.24;63.33;101884.44;6124016;23;20017;-51
2023/05/14 00:39:07;;;;;;;4.45;4.05;;;;;;;19.24;63.00;101882.56;6098332;23;20010;-52
2023/05/14 00:41:32;;;;;;;5.07;4.68;;;;;;;19.23;62.99;101870.06;6124220;23;20010;-51
2023/05/14 00:43:58;;;;;;;8.93;4.50;;;;;;;19.24;63.07;101871.78;6123663;23;20020;-51
2023/05/14 00:46:23;;;;;;;4.68;4.28;;;;;;;19.23;63.14;101877.28;6123482;23;20013;-51
2023/05/14 00:48:49;;;;;;;4.70;4.30;;;;;;;19.23;62.93;101872.78;6123857;23;20390;-51
2023/05/14 00:51:15;;;;;;;6.43;4.32;;;;;;;19.22;63.22;101856.69;6123606;23;20068;-51
2023/05/14 00:53:40;;;;;;;4.90;4.00;;;;;;;19.22;63.23;101862.94;6123872;23;20017;-51
2023/05/14 00:56:07;;;;;;;5.30;4.47;;;;;;;19.21;63.05;101865.78;6124282;23;20377;-52
2023/05/14 00:58:32;;;;;;;5.25;4.65;;;;;;;19.22;63.15;101870.19;6123611;23;20010;-52
2023/05/14 01:00:58;;;;;;;6.13;4.53;;;;;;;19.20;63.11;101862.22;6123334;23;20732;-51
2023/05/14 01:03:24;;;;;;;5.35;4.65;;;;;;;19.21;62.97;101865.78;6123226;23;20100;-51
2023/05/14 01:06:08;;;;;;;4.30;4.00;;;;;;;19.23;63.23;101858.41;6123653;23;20014;-51
2023/05/14 01:08:45;;;;;;;5.03;4.53;;;;;;;19.22;63.16;101862.09;6123648;23;20028;-51
2023/05/14 01:11:18;;;;;;;5.20;4.55;;;;;;;19.19;63.01;101862.34;6123370;23;20002;-52
2023/05/14 01:13:57;;;;;;;4.50;4.10;;;;;;;19.19;63.13;101857.84;6097490;23;20025;-51
2023/05/14 01:16:26;;;;;;;6.72;4.65;;;;;;;19.19;62.85;101862.34;6123497;23;20385;-51
2023/05/14 01:18:54;;;;;;;5.70;4.30;;;;;;;19.17;63.20;101870.56;6123586;23;20010;-51
2023/05/14 01:21:41;;;;;;;5.07;4.57;;;;;;;19.20;63.15;101864.06;6123415;23;20137;-51
2023/05/14 01:24:07;;;;;;;5.72;4.50;;;;;;;19.18;63.11;101860.66;6124051;23;20029;-51
2023/05/14 01:26:34;;;;;;;5.22;4.72;;;;;;;19.17;63.21;101859.78;6123258;23;20002;-51
2023/05/14 01:29:09;;;;;;;4.95;4.25;;;;;;;19.16;63.29;101854.53;6123628;23;20468;-52
2023/05/14 01:31:38;;;;;;;5.70;4.50;;;;;;;19.16;63.30;101849.97;6123754;23;20002;-51
2023/05/14 01:34:05;;;;;;;4.88;4.40;;;;;;;19.15;63.25;101842.84;6123197;23;20417;-51
2023/05/14 01:36:32;;;;;;;4.90;4.35;;;;;;;19.14;63.29;101847.41;6123326;23;20013;-53
2023/05/14 01:38:59;;;;;;;5.93;4.40;;;;;;;19.14;63.11;101841.16;6123163;23;20412;-50
2023/05/14 01:41:26;;;;;;;5.88;4.65;;;;;;;19.14;63.17;101842.00;6123130;23;20009;-51
2023/05/14 01:43:51;;;;;;;6.07;5.55;;;;;;;19.14;62.97;101843.84;6122981;23;20014;-52
2023/05/14 01:46:18;;;;;;;5.05;4.65;;;;;;;19.12;63.27;101854.78;6122921;23;20649;-51
2023/05/14 01:48:43;;;;;;;5.20;4.75;;;;;;;19.14;63.21;101854.66;6123064;23;20009;-51
2023/05/14 01:51:09;;;;;;;4.85;4.38;;;;;;;19.13;62.87;101850.22;6123793;23;20013;-51
2023/05/14 01:53:34;;;;;;;5.78;4.53;;;;;;;19.12;63.24;101860.16;6122934;23;20014;-51
2023/05/14 01:56:00;;;;;;;5.53;5.03;;;;;;;19.12;62.90;101852.06;6123171;23;20749;-51
2023/05/14 01:58:25;;;;;;;5.72;5.00;;;;;;;19.11;62.91;101853.06;6123151;23;20032;-51
2023/05/14 02:00:50;;;;;;;5.18;4.68;;;;;;;19.11;63.21;101846.81;6122712;23;20040;-50
2023/05/14 02:03:16;;;;;;;6.80;5.00;;;;;;;19.12;63.40;101853.94;6122627;23;20028;-52
2023/05/14 02:05:41;;;;;;;5.35;4.85;;;;;;;19.11;63.15;101842.28;6123182;23;20018;-52
2023/05/14 02:08:07;;;;;;;6.32;4.85;;;;;;;19.10;63.38;101832.44;6097617;23;20041;-51
2023/05/14 02:10:32;;;;;;;5.13;4.63;;;;;;;19.09;63.17;101830.72;6122690;23;20012;-51
2023/05/14 02:12:57;;;;;;;5.43;4.85;;;;;;;19.10;63.06;101831.59;6123016;23;20478;-51
2023/05/14 02:15:23;;;;;;;7.15;5.22;;;;;;;19.10;63.23;101837.00;6122700;23;20006;-52
2023/05/14 02:17:48;;;;;;;10.32;5.32;;;;;;;19.09;62.94;101833.41;6122484;23;20009;-52
2023/05/14 02:20:13;;;;;;;5.88;5.22;;;;;;;19.09;63.22;101838.81;6122779;23;20069;-51
2023/05/14 02:22:41;;;;;;;5.75;5.25;;;;;;;19.09;62.81;101843.38;6123467;23;20425;-52
2023/05/14 02:25:07;;;;;;;5.95;5.18;;;;;;;19.08;63.12;101834.44;6123090;23;20381;-52
2023/05/14 02:27:32;;;;;;;6.05;5.45;;;;;;;19.07;63.19;101835.41;6123206;23;20483;-50
2023/05/14 02:29:59;;;;;;;5.60;5.10;;;;;;;19.07;63.05;101832.69;6123043;23;20006;-51
2023/05/14 02:32:26;;;;;;;5.95;5.35;;;;;;;19.06;62.88;101824.75;6122893;23;20340;-52
2023/05/14 02:34:51;;;;;;;5.50;5.00;;;;;;;19.05;62.98;101823.88;6122820;23;20029;-50
2023/05/14 02:37:16;;;;;;;5.57;5.18;;;;;;;19.06;63.19;101824.75;6096900;23;20041;-51
2023/05/14 02:39:42;;;;;;;6.32;5.72;;;;;;;19.06;63.01;101827.47;6123515;23;20013;-52
2023/05/14 02:42:07;;;;;;;6.25;5.60;;;;;;;19.05;62.93;101828.44;6122834;23;20009;-52
2023/05/14 02:44:33;;;;;;;6.10;5.57;;;;;;;19.05;62.58;101821.19;6123038;23;20421;-52
2023/05/14 02:46:58;;;;;;;6.18;5.15;;;;;;;19.04;63.00;101835.69;6122557;23;20009;-52
2023/05/14 02:49:23;;;;;;;7.47;5.40;;;;;;;19.04;62.58;101832.09;6123180;23;20002;-51
2023/05/14 02:51:49;;;;;;;7.00;5.50;;;;;;;19.04;62.18;101827.59;6122999;23;20010;-51
2023/05/14 02:54:15;;;;;;;7.60;4.65;;;;;;;19.04;62.51;101827.59;6123133;23;20017;-51
2023/05/14 02:56:40;;;;;;;6.10;5.60;;;;;;;19.03;62.64;101831.25;6125183;23;20006;-51
2023/05/14 02:59:06;;;;;;;6.45;5.85;;;;;;;19.02;62.67;101832.25;6124712;23;20061;-52
2023/05/14 03:01:31;;;;;;;6.75;5.45;;;;;;;19.04;62.08;101830.28;6124371;23;20018;-51
2023/05/14 03:03:57;;;;;;;5.40;4.90;;;;;;;19.04;61.86;101830.28;6124340;23;20045;-51
2023/05/14 03:06:22;;;;;;;5.30;4.78;;;;;;;19.04;61.67;101827.59;6124415;23;20097;-51
2023/05/14 03:08:47;;;;;;;6.18;5.40;;;;;;;19.03;61.25;101823.16;6124722;23;20010;-51
2023/05/14 03:11:13;;;;;;;8.15;5.93;;;;;;;19.03;62.59;101825.84;6125164;23;20549;-49
2023/05/14 03:13:38;;;;;;;6.03;5.50;;;;;;;19.01;62.49;101822.44;6124612;23;20014;-51
2023/05/14 03:16:04;;;;;;;5.47;4.97;;;;;;;19.02;62.47;101818.75;6124497;23;20013;-51
2023/05/14 03:18:32;;;;;;;6.18;5.57;;;;;;;19.01;61.78;101806.22;6124593;23;20088;-52
2023/05/14 03:20:57;;;;;;;6.05;5.32;;;;;;;19.01;62.65;101816.19;6124558;23;20010;-52
2023/05/14 03:23:23;;;;;;;5.40;4.90;;;;;;;19.01;62.42;101810.78;6124501;23;20105;-52
2023/05/14 03:25:48;;;;;;;6.07;5.47;;;;;;;19.01;61.88;101816.19;6124603;23;20010;-51
2023/05/14 03:28:13;;;;;;;10.25;5.65;;;;;;;19.00;61.84;101806.34;6125124;23;20032;-51
2023/05/14 03:30:39;;;;;;;5.82;5.32;;;;;;;18.99;61.83;101805.50;6124341;23;20005;-51
2023/05/14 03:33:04;;;;;;;6.75;5.38;;;;;;;19.00;61.58;101798.25;6124346;23;20010;-52
2023/05/14 03:35:30;;;;;;;6.03;5.13;;;;;;;18.98;61.67;101805.63;6124747;23;20377;-52
2023/05/14 03:37:58;;;;;;;6.00;5.40;;;;;;;18.98;61.21;101806.47;6124366;23;20009;-52
2023/05/14 03:40:23;;;;;;;6.20;5.53;;;;;;;18.98;61.14;101803.78;6124043;23;20014;-52
2023/05/14 03:42:49;;;;;;;5.70;5.20;;;;;;;18.99;60.53;101801.97;6124614;23;20009;-52
2023/05/14 03:45:15;;;;;;;5.43;4.90;;;;;;;18.99;61.02;101801.97;6125173;23;20005;-52
2023/05/14 03:47:40;;;;;;;7.07;5.80;;;;;;;18.99;60.59;101799.25;6124009;23;20012;-51
2023/05/14 03:50:06;;;;;;;5.50;5.00;;;;;;;18.97;60.46;101802.09;6124236;23;20016;-51
2023/05/14 03:52:32;;;;;;;6.05;5.50;;;;;;;18.96;60.67;101803.06;6123847;23;20009;-51
2023/05/14 03:54:57;;;;;;;6.68;5.20;;;;;;;18.97;60.57;101804.78;6098393;23;20016;-51
2023/05/14 03:57:22;;;;;;;6.40;5.07;;;;;;;18.97;60.37;101809.34;6124059;23;20017;-51
2023/05/14 03:59:48;;;;;;;6.43;4.88;;;;;;;18.96;60.19;101797.66;6124032;23;20018;-51
2023/05/14 04:02:13;;;;;;;6.47;5.80;;;;;;;18.96;60.39;101803.06;6124254;23;20080;-51
2023/05/14 04:04:39;;;;;;;6.50;5.70;;;;;;;18.95;60.11;101802.22;6123950;23;20002;-51
2023/05/14 04:07:05;;;;;;;6.18;5.18;;;;;;;18.97;60.41;101809.34;6124236;23;20010;-51
2023/05/14 04:09:30;;;;;;;5.78;5.28;;;;;;;18.94;60.50;101797.81;6124000;23;20009;-52
2023/05/14 04:11:55;;;;;;;6.22;5.45;;;;;;;18.95;60.69;101798.66;6124046;23;20033;-51
2023/05/14 04:14:21;;;;;;;5.90;5.20;;;;;;;18.94;60.08;101800.50;6124514;23;20013;-51
2023/05/14 04:16:46;;;;;;;6.38;5.60;;;;;;;18.95;59.91;101794.13;6124405;23;20759;-49
2023/05/14 04:19:11;;;;;;;6.40;5.53;;;;;;;18.94;60.00;101794.25;6123900;23;20425;-51
2023/05/14 04:21:37;;;;;;;6.90;5.97;;;;;;;18.94;60.30;101791.53;6123944;23;20124;-51
2023/05/14 04:24:03;;;;;;;5.72;4.85;;;;;;;18.94;60.32;101797.81;6124094;23;20013;-51
2023/05/14 04:26:28;;;;;;;5.60;5.18;;;;;;;18.94;60.00;101799.63;6123981;23;20033;-51
2023/05/14 04:28:54;;;;;;;6.47;5.57;;;;;;;18.94;60.02;101796.94;6124008;23;20033;-49
2023/05/14 04:31:19;;;;;;;6.15;5.55;;;;;;;18.94;59.80;101796.94;6123707;23;20010;-52
2023/05/14 04:33:44;;;;;;;6.43;5.57;;;;;;;18.94;59.91;101797.81;6124466;23;20017;-51
2023/05/14 04:36:10;;;;;;;7.50;5.65;;;;;;;18.93;60.06;101796.09;6124002;23;20018;-51
2023/05/14 04:38:35;;;;;;;6.53;5.72;;;;;;;18.93;60.15;101797.94;6123657;23;20010;-52
2023/05/14 04:41:01;;;;;;;7.10;5.95;;;;;;;18.93;59.98;101792.53;6123971;23;20013;-50
2023/05/14 04:43:26;;;;;;;6.32;5.72;;;;;;;18.92;59.87;101790.81;6123402;23;20094;-52
2023/05/14 04:45:51;;;;;;;6.15;5.20;;;;;;;18.93;59.93;101798.78;6097459;23;20006;-51
2023/05/14 04:48:17;;;;;;;5.72;5.15;;;;;;;18.92;59.75;101790.81;6124663;23;20425;-52
2023/05/14 04:50:43;;;;;;;5.97;5.38;;;;;;;18.91;59.84;101789.13;6123452;23;20425;-51
2023/05/14 04:53:09;;;;;;;6.03;5.07;;;;;;;18.92;59.76;101797.09;6123763;23;20013;-51
2023/05/14 04:55:35;;;;;;;7.05;5.90;;;;;;;18.92;59.84;101793.50;6123581;23;20012;-51
2023/05/14 04:58:00;;;;;;;5.90;5.40;;;;;;;18.91;59.93;101800.75;6123670;23;20010;-51
2023/05/14 05:00:25;;;;;;;6.38;5.30;;;;;;;18.92;59.93;101807.00;6123325;23;20038;-52
2023/05/14 05:02:51;;;;;;;6.38;5.68;;;;;;;18.92;60.10;101801.59;6123310;23;20014;-51
2023/05/14 05:05:16;;;;;;;5.90;5.30;;;;;;;18.92;60.03;101801.59;6124089;23;20018;-51
2023/05/14 05:07:42;;;;;;;6.70;5.90;;;;;;;18.92;59.61;101801.59;6123805;23;20089;-51
2023/05/14 05:10:07;;;;;;;6.32;5.72;;;;;;;18.91;59.84;101795.38;6123477;23;20026;-51
2023/05/14 05:12:34;;;;;;;6.25;5.10;;;;;;;18.92;60.06;101797.09;6123756;23;20010;-52
2023/05/14 05:14:59;;;;;;;6.63;5.93;;;;;;;18.92;60.06;101801.59;6123698;23;20421;-51
2023/05/14 05:17:24;;;;;;;6.60;5.95;;;;;;;18.91;60.03;101800.75;6122890;23;20065;-51
2023/05/14 05:19:50;;;;;;;6.20;5.50;;;;;;;18.91;60.08;101803.47;6123691;23;20010;-50
2023/05/14 05:22:15;;;;;;;6.20;5.63;;;;;;;18.93;60.08;101803.34;6123937;23;20045;-51
2023/05/14 05:24:41;;;;;;;5.97;5.05;;;;;;;18.93;59.89;101808.72;6123495;23;20006;-52
2023/05/14 05:27:06;;;;;;;5.78;5.10;;;;;;;18.92;60.06;101818.69;6123378;23;20014;-51
2023/05/14 05:29:33;;;;;;;6.53;5.45;;;;;;;18.93;60.40;101816.81;6123400;23;20040;-52
2023/05/14 05:31:58;;;;;;;5.43;4.90;;;;;;;18.93;60.37;101806.03;6123017;23;20373;-51
2023/05/14 05:34:24;;;;;;;6.13;5.40;;;;;;;18.93;59.92;101804.19;6097685;23;20010;-50
2023/05/14 05:36:50;;;;;;;6.45;5.45;;;;;;;18.94;59.89;101815.81;6123574;23;20060;-52
2023/05/14 05:39:15;;;;;;;6.00;5.45;;;;;;;18.92;60.31;101818.69;6124165;23;20010;-51
2023/05/14 05:41:42;;;;;;;5.88;5.38;;;;;;;18.94;60.28;101807.72;6123358;23;20153;-51
2023/05/14 05:44:07;;;;;;;6.90;5.65;;;;;;;18.93;60.33;101808.72;6123072;23;20014;-52
2023/05/14 05:46:32;;;;;;;6.10;5.30;;;;;;;18.94;60.37;101813.13;6122884;23;20016;-51
2023/05/14 05:48:58;;;;;;;6.75;5.28;;;;;;;18.94;60.25;101815.81;6123338;23;20006;-51
2023/05/14 05:51:23;;;;;;;5.85;5.15;;;;;;;18.94;60.59;101811.31;6123543;23;20069;-51
2023/05/14 05:53:48;;;;;;;8.52;5.40;;;;;;;18.95;60.42;101818.41;6123982;23;20013;-51
2023/05/14 05:56:14;;;;;;;5.68;4.63;;;;;;;18.94;60.80;101822.09;6123130;23;20012;-50
2023/05/14 05:58:39;;;;;;;5.97;5.35;;;;;;;18.94;60.46;101822.09;6123092;23;20044;-51
2023/05/14 06:01:05;;;;;;;5.40;4.85;;;;;;;18.94;60.44;101827.50;6122886;23;20080;-51
2023/05/14 06:03:30;;;;;;;5.90;4.68;;;;;;;18.94;60.92;101830.19;6122840;23;20021;-51
2023/05/14 06:05:56;;;;;;;7.65;5.22;;;;;;;18.95;60.97;101833.75;6123186;23;20055;-52
2023/05/14 06:08:21;;;;;;;5.95;5.30;;;;;;;18.95;60.50;101833.75;6098018;23;20022;-51
2023/05/14 06:10:47;;;;;;;5.85;5.20;;;;;;;18.94;60.64;101832.91;6123541;23;20045;-51
2023/05/14 06:13:12;;;;;;;5.28;4.78;;;;;;;18.95;60.82;101829.19;6097042;23;20017;-52
2023/05/14 06:15:37;;;;;;;6.03;5.03;;;;;;;18.95;60.90;101831.06;6122769;23;20005;-52
2023/05/14 06:18:03;;;;;;;5.93;5.13;;;;;;;18.95;61.09;101839.16;6123082;23;20013;-52
2023/05/14 06:20:28;;;;;;;7.47;4.95;;;;;;;18.95;61.11;101839.16;6122617;23;20037;-52
2023/05/14 06:22:53;;;;;;;4.97;4.47;;;;;;;18.97;61.42;101839.88;6122445;23;20009;-52
2023/05/14 06:25:19;;;;;;;5.90;5.15;;;;;;;18.97;61.40;101841.72;6123628;23;20021;-51
2023/05/14 06:27:44;;;;;;;7.15;5.03;;;;;;;18.99;61.25;101850.53;6122401;23;20029;-51
2023/05/14 06:30:10;;;;;;;5.57;4.97;;;;;;;18.99;61.79;101848.69;6122719;23;20029;-52
2023/05/14 06:32:36;;;;;;;7.72;5.50;;;;;;;18.99;61.99;101858.63;6122326;23;20089;-52
2023/05/14 06:35:01;;;;;;;6.85;5.18;;;;;;;19.00;62.02;101852.25;6122785;23;20022;-52
2023/05/14 06:37:27;;;;;;;17.30;5.38;;;;;;;19.00;62.01;101849.53;6122237;23;20022;-51
2023/05/14 06:39:52;;;;;;;11.18;5.82;;;;;;;19.03;62.18;101841.19;6123203;23;20127;-52
2023/05/14 06:42:17;;;;;;;16.88;5.82;;;;;;;19.01;61.81;101841.31;6122823;23;20006;-52
2023/05/14 06:44:43;;;;;;;8.48;5.15;;;;;;;19.02;62.19;101844.88;6122597;23;20524;-52
2023/05/14 06:47:09;;;;;;;11.43;5.70;;;;;;;19.02;62.41;101832.25;6122475;23;20009;-52
2023/05/14 06:49:35;;;;;;;7.00;5.50;;;;;;;19.02;62.33;101836.78;6122315;23;20321;-53
2023/05/14 06:52:00;;;;;;;8.60;5.95;;;;;;;19.04;63.01;101841.06;6121597;23;20014;-52
2023/05/14 06:54:26;;;;;;;8.45;6.00;;;;;;;19.05;63.27;101839.22;6122964;23;20333;-53
2023/05/14 06:56:51;;;;;;;9.65;6.07;;;;;;;19.05;62.95;101829.28;6123297;23;20337;-52
2023/05/14 06:59:16;;;;;;;8.98;5.85;;;;;;;19.06;63.10;101838.25;6122240;23;20073;-52
2023/05/14 07:01:42;;;;;;;12.32;6.38;;;;;;;19.05;62.85;101840.06;6122005;23;20010;-52
2023/05/14 07:04:07;;;;;;;9.55;5.40;;;;;;;19.05;63.00;101829.28;6122426;23;20055;-53
2023/05/14 07:06:33;;;;;;;9.65;6.47;;;;;;;19.06;63.01;101835.56;6122666;23;20013;-52
2023/05/14 07:09:00;;;;;;;10.02;6.47;;;;;;;19.06;63.27;101831.00;6122020;23;20092;-52
2023/05/14 07:11:25;;;;;;;9.00;6.47;;;;;;;19.05;62.81;101834.66;6122752;23;20332;-53
2023/05/14 07:13:51;;;;;;;9.57;6.40;;;;;;;19.05;62.96;101826.56;6122849;23;20052;-52
2023/05/14 07:16:16;;;;;;;13.75;7.38;;;;;;;19.06;63.39;101831.00;6122323;23;20010;-52
2023/05/14 07:18:42;;;;;;;8.35;6.63;;;;;;;19.05;62.87;101840.06;6122924;23;20046;-53
2023/05/14 07:21:08;;;;;;;10.55;7.22;;;;;;;19.06;63.62;101843.66;6121815;23;20009;-52
2023/05/14 07:23:35;;;;;;;11.68;7.43;;;;;;;19.06;63.19;101836.41;6121871;23;20014;-53
2023/05/14 07:26:01;;;;;;;9.38;7.40;;;;;;;19.06;63.54;101841.81;6122137;23;20010;-53
2023/05/14 07:28:26;;;;;;;10.27;6.85;;;;;;;19.07;63.60;101838.09;6121973;23;20017;-53
2023/05/14 07:30:52;;;;;;;8.18;6.72;;;;;;;19.07;63.39;101831.84;6122672;23;20040;-53
2023/05/14 07:33:17;;;;;;;12.75;7.32;;;;;;;19.08;63.71;101833.59;6122338;23;20010;-54
2023/05/14 07:35:42;;;;;;;11.80;7.25;;;;;;;19.08;63.31;101841.69;6122207;23;20006;-54
2023/05/14 07:38:08;;;;;;;10.35;6.78;;;;;;;19.08;63.37;101828.19;6122520;23;20030;-53
2023/05/14 07:40:33;;;;;;;14.35;6.95;;;;;;;19.08;63.64;101833.59;6123026;23;20005;-54
2023/05/14 07:42:59;;;;;;;10.35;7.38;;;;;;;19.09;63.51;101832.56;6124155;23;20013;-53
2023/05/14 07:45:24;;;;;;;11.82;7.15;;;;;;;19.09;63.75;101829.88;6124682;23;20095;-54
2023/05/14 07:47:50;;;;;;;8.75;7.10;;;;;;;19.09;63.82;101832.56;6123627;23;20017;-53
2023/05/14 07:50:19;;;;;;;9.30;6.72;;;;;;;19.09;63.67;101837.97;6123681;23;20017;-53
2023/05/14 07:52:44;;;;;;;9.43;7.40;;;;;;;19.08;63.84;101829.03;6124225;23;20006;-53
2023/05/14 07:55:11;;;;;;;8.43;6.43;;;;;;;19.09;63.79;101827.19;6124029;23;20010;-53
2023/05/14 07:57:37;;;;;;;7.95;6.93;;;;;;;19.08;63.97;101831.72;6123974;23;20020;-56
2023/05/14 08:00:06;;;;;;;11.35;7.75;;;;;;;19.08;63.75;101829.03;6124028;23;20089;-54
2023/05/14 08:02:32;;;;;;;8.95;7.10;;;;;;;19.08;63.71;101823.63;6123439;23;20483;-54
2023/05/14 08:04:57;;;;;;;7.70;6.38;;;;;;;19.08;63.65;101828.19;6123900;23;20014;-54
2023/05/14 08:07:23;;;;;;;11.23;7.47;;;;;;;19.09;63.65;101824.47;6124648;23;20010;-54
2023/05/14 08:09:49;;;;;;;11.02;7.13;;;;;;;19.08;63.82;101823.63;6123785;23;20002;-54
2023/05/14 08:12:15;;;;;;;12.95;7.20;;;;;;;19.08;63.75;101818.22;6124130;23;20002;-54
2023/05/14 08:14:40;;;;;;;9.30;6.68;;;;;;;19.08;64.05;101818.22;6123955;23;20020;-54
2023/05/14 08:17:05;;;;;;;9.57;7.05;;;;;;;19.08;63.70;101818.22;6123992;23;20014;-54
2023/05/14 08:19:31;;;;;;;11.60;7.38;;;;;;;19.09;63.75;101819.06;6123623;23;20030;-54
2023/05/14 08:21:56;;;;;;;11.05;7.35;;;;;;;19.08;63.90;101820.94;6124851;23;20041;-54
2023/05/14 08:24:22;;;;;;;8.35;6.53;;;;;;;19.09;63.87;101830.72;6124170;23;20025;-54
2023/05/14 08:26:47;;;;;;;10.40;7.22;;;;;;;19.09;64.10;101827.19;6123723;23;20471;-54
2023/05/14 08:29:13;;;;;;;10.23;7.07;;;;;;;19.09;64.22;101828.03;6123740;23;20010;-54
2023/05/14 08:31:38;;;;;;;9.82;7.47;;;;;;;19.09;63.97;101828.03;6123391;23;20017;-54
2023/05/14 08:34:03;;;;;;;11.68;7.15;;;;;;;19.09;64.13;101822.63;6123784;23;20010;-54
2023/05/14 08:36:29;;;;;;;8.57;7.22;;;;;;;19.09;63.90;101814.53;6123089;23;20014;-54
2023/05/14 08:38:54;;;;;;;14.27;8.10;;;;;;;19.10;63.89;101815.41;6098167;23;20010;-54
2023/05/14 08:41:20;;;;;;;10.43;7.93;;;;;;;19.10;64.12;101816.25;6123512;23;20009;-54
2023/05/14 08:44:06;;;;;;;11.63;8.05;;;;;;;19.09;63.61;101814.53;6122828;23;20010;-54
2023/05/14 08:46:33;;;;;;;13.52;8.27;;;;;;;19.12;63.89;101810.72;6122065;23;20013;-54
2023/05/14 08:49:15;;;;;;;11.60;7.95;;;;;;;19.12;63.74;101810.72;6123976;23;20006;-54
2023/05/14 08:51:42;;;;;;;11.07;7.60;;;;;;;19.13;63.87;101812.44;6122014;23;20006;-54
2023/05/14 08:54:08;;;;;;;10.70;7.90;;;;;;;19.13;63.69;101816.00;6122804;23;20016;-54
2023/05/14 08:56:34;;;;;;;9.15;6.57;;;;;;;19.13;63.91;101809.72;6123766;23;20016;-54
2023/05/14 08:59:00;;;;;;;9.32;7.95;;;;;;;19.14;63.88;101808.75;6123477;23;20010;-56
2023/05/14 09:01:25;;;;;;;8.50;7.38;;;;;;;19.14;63.90;101798.81;6123806;23;20013;-54
2023/05/14 09:03:53;;;;;;;11.13;7.97;;;;;;;19.14;63.65;101796.09;6123013;23;20026;-54
2023/05/14 09:06:20;;;;;;;9.15;7.65;;;;;;;19.16;63.46;101792.44;6123023;23;20441;-54
2023/05/14 09:08:45;;;;;;;8.40;7.50;;;;;;;19.16;63.62;101793.28;6123473;23;20468;-54
2023/05/14 09:11:11;;;;;;;9.32;7.10;;;;;;;19.17;63.51;101791.44;6123626;23;20001;-54
2023/05/14 09:13:38;;;;;;;9.48;7.25;;;;;;;19.17;63.96;101792.28;6122252;23;20010;-54
2023/05/14 09:16:04;;;;;;;9.77;7.25;;;;;;;19.18;63.77;101787.75;6122795;23;20413;-54
2023/05/14 09:18:29;;;;;;;11.65;7.50;;;;;;;19.19;63.64;101797.56;6123602;23;20010;-54
2023/05/14 09:20:55;;;;;;;9.60;6.72;;;;;;;19.18;63.98;101783.22;6123300;23;20324;-54
2023/05/14 09:23:20;;;;;;;10.20;6.90;;;;;;;19.19;63.74;101782.22;6122997;23;20013;-54
2023/05/14 09:25:47;;;;;;;10.95;6.80;;;;;;;19.19;63.84;101779.53;6123592;23;20014;-54
2023/05/14 09:28:16;;;;;;;7.93;6.60;;;;;;;19.19;63.87;101776.84;6123374;23;20014;-54
2023/05/14 09:30:46;;;;;;;9.45;6.85;;;;;;;19.21;63.96;101779.38;6122956;23;20009;-54
2023/05/14 09:33:25;;;;;;;9.55;6.18;;;;;;;19.21;63.82;101782.06;6122767;23;20006;-55
2023/05/14 09:35:50;;;;;;;9.23;6.53;;;;;;;19.22;63.93;101781.09;6123288;23;20033;-55
2023/05/14 09:38:16;;;;;;;10.05;6.43;;;;;;;19.22;63.94;101776.56;6123026;23;20033;-54
2023/05/14 09:40:41;;;;;;;9.15;7.00;;;;;;;19.22;64.03;101778.41;6096702;23;20006;-54
2023/05/14 09:43:07;;;;;;;8.32;6.10;;;;;;;19.23;63.83;101774.69;6123259;23;20073;-54
2023/05/14 09:45:33;;;;;;;7.60;5.80;;;;;;;19.22;63.87;101770.31;6122627;23;20014;-54
2023/05/14 09:47:59;;;;;;;7.18;6.18;;;;;;;19.24;63.86;101768.31;6123976;23;20022;-54
2023/05/14 09:50:25;;;;;;;6.88;5.72;;;;;;;19.24;63.80;101763.78;6097246;23;20700;-54
2023/05/14 09:52:50;;;;;;;6.80;5.55;;;;;;;19.23;63.72;101759.38;6122396;23;20010;-54
2023/05/14 09:55:16;;;;;;;10.02;6.32;;;;;;;19.25;63.95;101764.66;6122940;23;20006;-54
2023/05/14 09:57:41;;;;;;;8.07;5.93;;;;;;;19.25;63.51;101759.25;6122588;23;20010;-54
2023/05/14 10:00:08;;;;;;;7.53;6.00;;;;;;;19.26;64.03;101758.25;6122488;23;20037;-54
2023/05/14 10:02:36;;;;;;;7.32;5.97;;;;;;;19.26;63.81;101759.09;6122092;23;20041;-54
2023/05/14 10:05:03;;;;;;;6.78;6.07;;;;;;;19.27;63.83;101762.66;6123046;23;20029;-54
2023/05/14 10:07:35;;;;;;;6.57;5.60;;;;;;;19.27;63.63;101763.53;6122757;23;20001;-54
2023/05/14 10:10:05;;;;;;;7.47;6.40;;;;;;;19.28;63.73;101758.97;6123572;23;20002;-54
2023/05/14 10:12:34;;;;;;;8.02;6.13;;;;;;;19.28;64.06;101765.22;6122895;23;20009;-54
2023/05/14 10:15:08;;;;;;;8.30;6.15;;;;;;;19.29;63.85;101752.59;6123442;23;20025;-54
2023/05/14 10:17:37;;;;;;;6.90;6.20;;;;;;;19.28;63.99;101754.41;6122441;23;20081;-54
2023/05/14 10:20:05;;;;;;;8.93;6.35;;;;;;;19.28;64.24;101754.41;6122393;23;20509;-55
2023/05/14 10:22:33;;;;;;;8.02;5.95;;;;;;;19.30;64.21;101751.59;6123795;23;20012;-54
2023/05/14 10:25:00;;;;;;;6.03;5.43;;;;;;;19.30;63.86;101751.59;6122880;23;20034;-54
2023/05/14 10:27:26;;;;;;;8.52;5.57;;;;;;;19.31;63.97;101747.91;6122333;23;20025;-54
2023/05/14 10:29:54;;;;;;;5.88;4.85;;;;;;;19.32;63.75;101755.00;6121801;23;20017;-54
2023/05/14 10:32:21;;;;;;;7.13;5.90;;;;;;;19.33;63.95;101751.34;6122188;23;20109;-54
2023/05/14 10:34:47;;;;;;;6.20;5.40;;;;;;;19.33;63.95;101748.63;6122381;23;20061;-54
2023/05/14 10:37:15;;;;;;;6.55;5.85;;;;;;;19.35;63.91;101749.34;6122429;23;20455;-54
2023/05/14 10:39:42;;;;;;;6.82;5.00;;;;;;;19.35;63.77;101738.56;6122082;23;20037;-54
2023/05/14 10:42:10;;;;;;;5.75;5.15;;;;;;;19.36;64.07;101744.81;6121932;23;20006;-54
2023/05/14 10:44:49;;;;;;;7.00;5.50;;;;;;;19.37;64.15;101741.97;6121890;23;20001;-54
2023/05/14 10:47:18;;;;;;;7.18;5.57;;;;;;;19.37;63.82;101739.28;6122704;23;20006;-54
2023/05/14 10:49:47;;;;;;;6.38;5.50;;;;;;;19.37;63.70;101731.16;6121974;23;20009;-54
2023/05/14 10:52:15;;;;;;;7.55;5.65;;;;;;;19.38;63.63;101732.00;6122060;23;20011;-54
2023/05/14 10:54:49;;;;;;;10.02;5.18;;;;;;;19.37;63.83;101720.38;6122869;23;20497;-54
2023/05/14 10:57:17;;;;;;;9.85;5.28;;;;;;;19.39;63.75;101722.94;6122653;23;20006;-54
2023/05/14 10:59:42;;;;;;;6.40;4.72;;;;;;;19.41;64.38;101723.66;6122538;23;20007;-54
2023/05/14 11:02:25;;;;;;;5.95;5.35;;;;;;;19.41;64.16;101721.81;6122156;23;20017;-54
2023/05/14 11:04:56;;;;;;;7.78;5.00;;;;;;;19.42;64.15;101725.34;6121352;23;20018;-54
2023/05/14 11:07:26;;;;;;;8.30;5.28;;;;;;;19.41;64.35;101715.56;6120822;23;20002;-54
2023/05/14 11:09:52;;;;;;;8.60;5.55;;;;;;;19.41;64.30;101712.84;6120616;23;20606;-54
2023/05/14 11:12:18;;;;;;;6.97;4.70;;;;;;;19.41;64.25;101713.69;6120915;23;20072;-54
2023/05/14 11:14:45;;;;;;;6.10;4.90;;;;;;;19.44;64.09;101710.75;6120586;23;20380;-54
2023/05/14 11:17:11;;;;;;;5.68;4.55;;;;;;;19.45;64.13;101707.03;6122924;23;20002;-54
2023/05/14 11:19:36;;;;;;;5.70;5.13;;;;;;;19.47;64.40;101715.00;6124153;23;20010;-54